x

Point Arguello, Ca (ptgc1) Weather Station

6:00am - Sat 25th Mar 2017 All times are PDT. -7 hours from GMT.

  • Wind
    17mph, 18mph gusts
  • Air Temp 55°f
  • Sea Pressure 1019.8mb
  • Point Arguello, Ca
  • Point Arguello, Ca

More Historic Weather Station data

Upgrade to MSW Pro to gain access to the past 30 days of data for over 8000 Wavebouys and Weather Stations around the globe.

Join Pro

Comparision Forecast

View Surf forecast
   
Sat 03/25 6:00am 17 18 mph 1019.8mb 55f
5:00am 1 2 mph 1019.8mb 57f
4:00am  -  mph 1020.4mb 57f
3:00am 1 2 mph 1021.2mb 57f
2:00am 1 2 mph 1021.7mb 56f
1:00am  -  1 mph 1022.2mb 56f
12:00am 2 3 mph 1022.6mb 56f
Fri 03/24 11:00pm 3
mph
1023.2mb 56f
10:00pm 5
mph
1023.2mb 56f
9:00pm 3 5 mph 1022.7mb 57f
8:00pm 5 6 mph 1023.3mb 57f
7:00pm 7 8 mph 1023.4mb 56f
6:00pm 8
mph
1023.6mb 56f
5:00pm 7
mph
1023.6mb 56f
4:00pm 6 7 mph 1024.2mb 56f
3:00pm 7 8 mph 1025mb 56f
2:00pm 7 8 mph 1025.6mb 55f
1:00pm 6 7 mph 1026mb 56f
12:00pm 5 6 mph 1026mb 55f
11:00am 6 7 mph 1025.9mb 55f
10:00am 7
mph
1025.6mb 54f
9:00am  -  1 mph 1025.3mb 54f
8:00am 5 6 mph 1024.7mb 53f
7:00am 13 15 mph 1024.1mb 52f
6:00am 11 13 mph 1024.4mb 52f
5:00am 14 17 mph 1023.8mb 52f
4:00am 15 18 mph 1023.8mb 52f
3:00am 16 18 mph 1024.4mb 52f
2:00am 22 23 mph 1024.6mb 54f
1:00am 22 23 mph 1024.5mb 54f
12:00am 23 24 mph 1024.5mb 54f
Thu 03/23 11:00pm 23 25 mph 1024.3mb 54f
10:00pm 25 26 mph 1024.5mb 54f
9:00pm 25 28 mph 1024mb 54f
8:00pm 28 30 mph 1023.7mb 54f
7:00pm 26 30 mph 1023.9mb 54f
6:00pm 30 32 mph 1023.1mb 54f
5:00pm 26 29 mph 1023mb 54f
4:00pm 24 26 mph 1022.9mb 54f
3:00pm 26 28 mph 1022.7mb 54f
2:00pm 29 31 mph 1023.7mb 54f
1:00pm 24 29 mph 1023.9mb 54f
12:00pm 22 23 mph 1024.4mb 53f
11:00am 23 25 mph 1023.6mb 53f
10:00am 25 28 mph 1023.2mb 53f
9:00am 20 22 mph 1022.7mb 52f
8:00am 15 16 mph 1022mb 51f
7:00am 16 20 mph 1021.5mb 51f
6:00am 24 28 mph 1020.8mb 52f
5:00am 33 38 mph 1020.7mb 54f
4:00am 36 39 mph 1020.3mb 54f
3:00am 36 38 mph 1020.4mb 54f
2:00am 34 39 mph 1020.3mb 54f
1:00am 36 39 mph 1020mb 54f
12:00am 34 38 mph 1019.6mb 54f
Wed 03/22 11:00pm 36 41 mph 1019.3mb 54f
10:00pm 34 39 mph 1019mb 55f
9:00pm 30 32 mph 1018.8mb 55f
8:00pm 30 32 mph 1018.2mb 55f
7:00pm 30 33 mph 1018.1mb 55f
6:00pm 28 31 mph 1017.9mb 56f
5:00pm 24 25 mph 1017.6mb 56f
4:00pm 21 24 mph 1017.9mb 56f
3:00pm 18 20 mph 1017.9mb 56f
2:00pm 15 17 mph 1018.2mb 56f
1:00pm 15
mph
1018.7mb 56f
12:00pm 9 11 mph 1019mb 56f
11:00am 2
mph
1018.8mb 58f
10:00am  -  1 mph 1018.6mb 58f
9:00am  -  2 mph 1018.5mb 56f
8:00am 1 2 mph 1018.3mb 56f
7:00am 2 3 mph 1017.8mb 56f
6:00am 2 3 mph 1017.5mb 56f
5:00am 5
mph
1017.5mb 56f
4:00am 5 6 mph 1017.6mb 55f
3:00am 5 6 mph 1017.9mb 56f
2:00am 3
mph
1018.1mb 55f
1:00am 6 7 mph 1018.4mb 56f
12:00am 2 3 mph 1018.2mb 56f
Tue 03/21 11:00pm 5 10 mph 1018.1mb 57f
10:00pm 6 11 mph 1018.1mb 57f
9:00pm 6 9 mph 1017.9mb 58f
8:00pm 21 24 mph 1016.8mb 57f
7:00pm 22 26 mph 1016.4mb 58f
6:00pm 11 20 mph 1016.2mb 59f
5:00pm 20 25 mph 1015.9mb 60f
4:00pm 20 23 mph 1016.4mb 60f
3:00pm 23 28 mph 1016.4mb 59f